Buna, Texas
Current Conditions -  °F | °C
As of 9:55 AM on Friday 21 Nov 2014 (Local Time) from KORG Reporting Station
Light Rain Light Rain  
Wind Chill: 62°   Ceiling: 4900
Heat Index: 62°   Visibility: 7mi
Dew Point: 61°   Wind: 10mph
Humidity: 97%   Direction: 100°E
Pressure: 30.23"   Gusts: NA
Location:  30.43°N, 93.97°W
Report Text: KORG 211555Z AUTO 10009KT 7SM -RA SCT045 OVC049 17/16 A3023 RMK AO2 T01660161
Loading
Personal Weather Stations






























Interactive Weather Map New forecast layout! Learn more

10-Day Weather Forecast

Advertisements
Track Severe Weather on mobile